Ahoskie, North Carolina
Current Conditions -  °F | °C
As of 6:15 PM on Tuesday 25 Nov 2014 (Local Time) from KASJ Reporting Station
Light Rain Light Rain  
Wind Chill: 54°   Ceiling: NA
Heat Index: 54°   Visibility: 10mi
Dew Point: 51°   Wind: 5mph
Humidity: 89%   Direction: 50°NE
Pressure: 30.09"   Gusts: NA
Location:  36.29°N, 76.98°W
Report Text: KASJ 252315Z AUTO 05004KT 10SM -RA 12/11 A3009 RMK AO2 T01230105
Loading
Personal Weather Stations






























Interactive Weather Map New forecast layout! Learn more

10-Day Weather Forecast

Advertisements
Track Severe Weather on mobile